sensor_id;sensor_type;location;lat;lon;timestamp;temperature;humidity
4673;DHT22;61885;53.560;9.940;2023-05-16T00:00:41;10.50;1.00
4673;DHT22;61885;53.560;9.940;2023-05-16T00:03:14;10.50;1.00
4673;DHT22;61885;53.560;9.940;2023-05-16T00:05:45;10.50;1.00
4673;DHT22;61885;53.560;9.940;2023-05-16T00:08:16;10.50;1.00
4673;DHT22;61885;53.560;9.940;2023-05-16T00:10:48;10.50;1.00
4673;DHT22;61885;53.560;9.940;2023-05-16T00:13:18;10.60;1.00
4673;DHT22;61885;53.560;9.940;2023-05-16T00:15:53;10.60;1.00
4673;DHT22;61885;53.560;9.940;2023-05-16T00:18:23;10.50;1.00
4673;DHT22;61885;53.560;9.940;2023-05-16T00:20:53;10.50;1.00
4673;DHT22;61885;53.560;9.940;2023-05-16T00:23:23;10.50;1.00
4673;DHT22;61885;53.560;9.940;2023-05-16T00:25:55;10.60;1.00
4673;DHT22;61885;53.560;9.940;2023-05-16T00:28:25;10.60;1.00
4673;DHT22;61885;53.560;9.940;2023-05-16T00:30:58;10.60;1.00
4673;DHT22;61885;53.560;9.940;2023-05-16T00:33:28;10.60;1.00
4673;DHT22;61885;53.560;9.940;2023-05-16T00:35:58;10.60;1.00
4673;DHT22;61885;53.560;9.940;2023-05-16T00:38:28;10.70;1.00
4673;DHT22;61885;53.560;9.940;2023-05-16T00:40:57;10.70;1.00
4673;DHT22;61885;53.560;9.940;2023-05-16T00:43:27;10.70;1.00
4673;DHT22;61885;53.560;9.940;2023-05-16T00:45:59;10.70;1.00
4673;DHT22;61885;53.560;9.940;2023-05-16T00:48:32;10.70;1.00
4673;DHT22;61885;53.560;9.940;2023-05-16T00:51:02;10.80;1.00
4673;DHT22;61885;53.560;9.940;2023-05-16T00:53:37;10.70;1.00
4673;DHT22;61885;53.560;9.940;2023-05-16T00:56:07;10.70;1.00
4673;DHT22;61885;53.560;9.940;2023-05-16T00:58:36;10.80;1.00
4673;DHT22;61885;53.560;9.940;2023-05-16T01:01:09;10.90;1.00
4673;DHT22;61885;53.560;9.940;2023-05-16T01:03:40;10.90;1.00
4673;DHT22;61885;53.560;9.940;2023-05-16T01:06:11;10.90;1.00
4673;DHT22;61885;53.560;9.940;2023-05-16T01:08:41;10.90;1.00
4673;DHT22;61885;53.560;9.940;2023-05-16T01:11:16;10.90;1.00
4673;DHT22;61885;53.560;9.940;2023-05-16T01:13:57;10.90;1.00
4673;DHT22;61885;53.560;9.940;2023-05-16T01:16:38;10.90;1.00
4673;DHT22;61885;53.560;9.940;2023-05-16T01:19:17;10.90;1.00
4673;DHT22;61885;53.560;9.940;2023-05-16T01:21:52;10.80;1.00
4673;DHT22;61885;53.560;9.940;2023-05-16T01:24:33;10.80;1.00
4673;DHT22;61885;53.560;9.940;2023-05-16T01:27:06;10.70;1.00
4673;DHT22;61885;53.560;9.940;2023-05-16T01:29:36;10.80;1.00
4673;DHT22;61885;53.560;9.940;2023-05-16T01:32:06;10.80;1.00
4673;DHT22;61885;53.560;9.940;2023-05-16T01:34:36;10.80;1.00
4673;DHT22;61885;53.560;9.940;2023-05-16T01:37:11;10.90;1.00
4673;DHT22;61885;53.560;9.940;2023-05-16T01:39:46;10.90;1.00
4673;DHT22;61885;53.560;9.940;2023-05-16T01:42:21;10.90;1.00
4673;DHT22;61885;53.560;9.940;2023-05-16T01:44:58;10.80;1.00
4673;DHT22;61885;53.560;9.940;2023-05-16T01:47:29;10.70;1.00
4673;DHT22;61885;53.560;9.940;2023-05-16T01:50:05;10.70;1.00
4673;DHT22;61885;53.560;9.940;2023-05-16T01:52:39;10.60;1.00
4673;DHT22;61885;53.560;9.940;2023-05-16T01:55:20;10.50;1.00
4673;DHT22;61885;53.560;9.940;2023-05-16T01:57:55;10.40;1.00
4673;DHT22;61885;53.560;9.940;2023-05-16T02:00:27;10.40;1.00
4673;DHT22;61885;53.560;9.940;2023-05-16T02:02:59;10.30;1.00
4673;DHT22;61885;53.560;9.940;2023-05-16T02:05:29;10.30;1.00
4673;DHT22;61885;53.560;9.940;2023-05-16T02:08:01;10.40;1.00
4673;DHT22;61885;53.560;9.940;2023-05-16T02:10:32;10.30;1.00
4673;DHT22;61885;53.560;9.940;2023-05-16T02:13:06;10.30;1.00
4673;DHT22;61885;53.560;9.940;2023-05-16T02:15:36;10.30;1.00
4673;DHT22;61885;53.560;9.940;2023-05-16T02:18:07;10.40;1.00
4673;DHT22;61885;53.560;9.940;2023-05-16T02:20:37;10.30;1.00
4673;DHT22;61885;53.560;9.940;2023-05-16T02:23:08;10.30;1.00
4673;DHT22;61885;53.560;9.940;2023-05-16T02:25:37;10.30;1.00
4673;DHT22;61885;53.560;9.940;2023-05-16T02:28:12;10.30;1.00
4673;DHT22;61885;53.560;9.940;2023-05-16T02:30:41;10.30;1.00
4673;DHT22;61885;53.560;9.940;2023-05-16T02:33:11;10.30;1.00
4673;DHT22;61885;53.560;9.940;2023-05-16T02:35:40;10.30;1.00
4673;DHT22;61885;53.560;9.940;2023-05-16T02:38:10;10.20;1.00
4673;DHT22;61885;53.560;9.940;2023-05-16T02:40:43;10.30;1.00
4673;DHT22;61885;53.560;9.940;2023-05-16T02:43:15;10.20;1.00
4673;DHT22;61885;53.560;9.940;2023-05-16T02:45:45;10.30;1.00
4673;DHT22;61885;53.560;9.940;2023-05-16T02:48:15;10.30;1.00
4673;DHT22;61885;53.560;9.940;2023-05-16T02:50:45;10.20;1.00
4673;DHT22;61885;53.560;9.940;2023-05-16T02:53:14;10.20;1.00
4673;DHT22;61885;53.560;9.940;2023-05-16T02:55:44;10.30;1.00
4673;DHT22;61885;53.560;9.940;2023-05-16T02:58:16;10.20;1.00
4673;DHT22;61885;53.560;9.940;2023-05-16T03:00:46;10.20;1.00
4673;DHT22;61885;53.560;9.940;2023-05-16T03:03:15;10.20;1.00
4673;DHT22;61885;53.560;9.940;2023-05-16T03:05:45;10.10;1.00
4673;DHT22;61885;53.560;9.940;2023-05-16T03:08:16;10.10;1.00
4673;DHT22;61885;53.560;9.940;2023-05-16T03:10:47;10.10;1.00
4673;DHT22;61885;53.560;9.940;2023-05-16T03:13:20;10.10;1.00
4673;DHT22;61885;53.560;9.940;2023-05-16T03:15:50;10.20;1.00
4673;DHT22;61885;53.560;9.940;2023-05-16T03:18:20;10.10;1.00
4673;DHT22;61885;53.560;9.940;2023-05-16T03:20:50;10.00;1.00
4673;DHT22;61885;53.560;9.940;2023-05-16T03:23:21;10.00;1.00
4673;DHT22;61885;53.560;9.940;2023-05-16T03:25:50;10.00;1.00
4673;DHT22;61885;53.560;9.940;2023-05-16T03:28:23;10.00;1.00
4673;DHT22;61885;53.560;9.940;2023-05-16T03:30:52;10.00;1.00
4673;DHT22;61885;53.560;9.940;2023-05-16T03:33:22;10.00;1.00
4673;DHT22;61885;53.560;9.940;2023-05-16T03:35:59;10.00;1.00
4673;DHT22;61885;53.560;9.940;2023-05-16T03:38:32;10.00;1.00
4673;DHT22;61885;53.560;9.940;2023-05-16T03:41:15;9.90;1.00
4673;DHT22;61885;53.560;9.940;2023-05-16T03:47:35;9.50;1.00
4673;DHT22;61885;53.560;9.940;2023-05-16T03:50:21;10.00;1.00
4673;DHT22;61885;53.560;9.940;2023-05-16T03:58:46;9.90;1.00
4673;DHT22;61885;53.560;9.940;2023-05-16T04:01:17;10.00;1.00
4673;DHT22;61885;53.560;9.940;2023-05-16T04:03:51;10.00;1.00
4673;DHT22;61885;53.560;9.940;2023-05-16T04:06:25;10.00;1.00
4673;DHT22;61885;53.560;9.940;2023-05-16T04:08:55;10.00;1.00
4673;DHT22;61885;53.560;9.940;2023-05-16T04:11:25;9.90;1.00
4673;DHT22;61885;53.560;9.940;2023-05-16T04:13:54;9.90;1.00
4673;DHT22;61885;53.560;9.940;2023-05-16T04:16:24;9.90;1.00
4673;DHT22;61885;53.560;9.940;2023-05-16T04:18:57;9.90;1.00
4673;DHT22;61885;53.560;9.940;2023-05-16T04:21:29;9.90;1.00
4673;DHT22;61885;53.560;9.940;2023-05-16T04:23:59;9.90;1.00
4673;DHT22;61885;53.560;9.940;2023-05-16T04:26:30;9.90;1.00
4673;DHT22;61885;53.560;9.940;2023-05-16T04:29:01;9.90;1.00
4673;DHT22;61885;53.560;9.940;2023-05-16T04:31:33;9.90;1.00
4673;DHT22;61885;53.560;9.940;2023-05-16T04:34:10;9.80;1.00
4673;DHT22;61885;53.560;9.940;2023-05-16T04:36:42;9.80;1.00
4673;DHT22;61885;53.560;9.940;2023-05-16T04:39:13;9.90;1.00
4673;DHT22;61885;53.560;9.940;2023-05-16T04:41:43;10.00;1.00
4673;DHT22;61885;53.560;9.940;2023-05-16T04:44:15;9.90;1.00
4673;DHT22;61885;53.560;9.940;2023-05-16T04:46:48;9.80;1.00
4673;DHT22;61885;53.560;9.940;2023-05-16T04:49:24;9.80;1.00
4673;DHT22;61885;53.560;9.940;2023-05-16T04:51:55;10.50;1.00
4673;DHT22;61885;53.560;9.940;2023-05-16T04:54:25;10.00;1.00
4673;DHT22;61885;53.560;9.940;2023-05-16T04:56:56;9.90;1.00
4673;DHT22;61885;53.560;9.940;2023-05-16T04:59:28;9.90;1.00
4673;DHT22;61885;53.560;9.940;2023-05-16T05:02:00;10.00;1.00
4673;DHT22;61885;53.560;9.940;2023-05-16T05:04:37;9.90;1.00
4673;DHT22;61885;53.560;9.940;2023-05-16T05:07:13;10.00;1.00
4673;DHT22;61885;53.560;9.940;2023-05-16T05:09:47;10.00;1.00
4673;DHT22;61885;53.560;9.940;2023-05-16T05:12:25;10.40;1.00
4673;DHT22;61885;53.560;9.940;2023-05-16T05:15:07;10.20;1.00
4673;DHT22;61885;53.560;9.940;2023-05-16T05:17:39;10.20;1.00
4673;DHT22;61885;53.560;9.940;2023-05-16T05:20:31;10.40;1.00
4673;DHT22;61885;53.560;9.940;2023-05-16T05:23:05;10.30;1.00
4673;DHT22;61885;53.560;9.940;2023-05-16T05:25:36;10.20;1.00
4673;DHT22;61885;53.560;9.940;2023-05-16T05:28:14;10.40;1.00
4673;DHT22;61885;53.560;9.940;2023-05-16T05:30:45;10.20;1.00
4673;DHT22;61885;53.560;9.940;2023-05-16T05:33:16;10.30;1.00
4673;DHT22;61885;53.560;9.940;2023-05-16T05:35:54;10.10;1.00
4673;DHT22;61885;53.560;9.940;2023-05-16T05:38:28;10.50;1.00
4673;DHT22;61885;53.560;9.940;2023-05-16T05:41:05;10.50;1.00
4673;DHT22;61885;53.560;9.940;2023-05-16T05:43:44;10.30;1.00
4673;DHT22;61885;53.560;9.940;2023-05-16T05:46:16;10.50;1.00
4673;DHT22;61885;53.560;9.940;2023-05-16T05:48:52;10.90;1.00
4673;DHT22;61885;53.560;9.940;2023-05-16T05:51:30;10.90;1.00
4673;DHT22;61885;53.560;9.940;2023-05-16T05:54:05;10.30;1.00
4673;DHT22;61885;53.560;9.940;2023-05-16T05:56:48;10.60;1.00
4673;DHT22;61885;53.560;9.940;2023-05-16T06:10:54;10.80;1.00
4673;DHT22;61885;53.560;9.940;2023-05-16T06:13:48;10.20;1.00
4673;DHT22;61885;53.560;9.940;2023-05-16T06:16:38;11.40;1.00
4673;DHT22;61885;53.560;9.940;2023-05-16T06:19:37;10.40;1.00
4673;DHT22;61885;53.560;9.940;2023-05-16T06:22:07;12.00;1.00
4673;DHT22;61885;53.560;9.940;2023-05-16T06:24:54;10.80;1.00
4673;DHT22;61885;53.560;9.940;2023-05-16T06:27:30;10.40;1.00
4673;DHT22;61885;53.560;9.940;2023-05-16T06:30:00;11.00;1.00
4673;DHT22;61885;53.560;9.940;2023-05-16T06:32:37;11.90;1.00
4673;DHT22;61885;53.560;9.940;2023-05-16T06:35:10;10.50;1.00
4673;DHT22;61885;53.560;9.940;2023-05-16T06:37:50;10.30;1.00
4673;DHT22;61885;53.560;9.940;2023-05-16T06:40:26;10.50;1.00
4673;DHT22;61885;53.560;9.940;2023-05-16T06:43:01;10.60;1.00
4673;DHT22;61885;53.560;9.940;2023-05-16T06:45:43;10.50;1.00
4673;DHT22;61885;53.560;9.940;2023-05-16T06:48:14;10.80;1.00
4673;DHT22;61885;53.560;9.940;2023-05-16T06:50:47;10.80;1.00
4673;DHT22;61885;53.560;9.940;2023-05-16T06:53:17;11.10;1.00
4673;DHT22;61885;53.560;9.940;2023-05-16T06:55:51;11.30;1.00
4673;DHT22;61885;53.560;9.940;2023-05-16T06:58:36;11.60;1.00
4673;DHT22;61885;53.560;9.940;2023-05-16T07:01:16;11.60;1.00
4673;DHT22;61885;53.560;9.940;2023-05-16T07:03:46;12.10;1.00
4673;DHT22;61885;53.560;9.940;2023-05-16T07:06:17;11.10;1.00
4673;DHT22;61885;53.560;9.940;2023-05-16T07:08:50;10.90;1.00
4673;DHT22;61885;53.560;9.940;2023-05-16T07:11:23;10.90;1.00
4673;DHT22;61885;53.560;9.940;2023-05-16T07:13:54;10.80;1.00
4673;DHT22;61885;53.560;9.940;2023-05-16T07:16:27;10.90;1.00
4673;DHT22;61885;53.560;9.940;2023-05-16T07:18:58;11.10;1.00
4673;DHT22;61885;53.560;9.940;2023-05-16T07:21:28;11.20;1.00
4673;DHT22;61885;53.560;9.940;2023-05-16T07:23:58;11.30;1.00
4673;DHT22;61885;53.560;9.940;2023-05-16T07:26:30;11.30;1.00
4673;DHT22;61885;53.560;9.940;2023-05-16T07:29:00;11.50;1.00
4673;DHT22;61885;53.560;9.940;2023-05-16T07:31:30;11.60;1.00
4673;DHT22;61885;53.560;9.940;2023-05-16T07:34:00;11.80;1.00
4673;DHT22;61885;53.560;9.940;2023-05-16T07:36:30;11.70;1.00
4673;DHT22;61885;53.560;9.940;2023-05-16T07:39:00;11.50;1.00
4673;DHT22;61885;53.560;9.940;2023-05-16T07:41:35;11.30;1.00
4673;DHT22;61885;53.560;9.940;2023-05-16T07:44:05;11.40;1.00
4673;DHT22;61885;53.560;9.940;2023-05-16T07:46:34;11.50;1.00
4673;DHT22;61885;53.560;9.940;2023-05-16T07:49:09;11.60;1.00
4673;DHT22;61885;53.560;9.940;2023-05-16T07:51:39;11.80;1.00
4673;DHT22;61885;53.560;9.940;2023-05-16T07:54:09;11.80;1.00
4673;DHT22;61885;53.560;9.940;2023-05-16T07:56:42;10.90;1.00
4673;DHT22;61885;53.560;9.940;2023-05-16T07:59:12;11.70;1.00
4673;DHT22;61885;53.560;9.940;2023-05-16T08:01:41;11.70;1.00
4673;DHT22;61885;53.560;9.940;2023-05-16T08:04:11;11.70;1.00
4673;DHT22;61885;53.560;9.940;2023-05-16T08:06:41;11.70;1.00
4673;DHT22;61885;53.560;9.940;2023-05-16T08:09:11;11.80;1.00
4673;DHT22;61885;53.560;9.940;2023-05-16T08:11:45;12.10;1.00
4673;DHT22;61885;53.560;9.940;2023-05-16T08:14:16;12.10;1.00
4673;DHT22;61885;53.560;9.940;2023-05-16T08:16:46;12.10;1.00
4673;DHT22;61885;53.560;9.940;2023-05-16T08:19:15;12.30;1.00
4673;DHT22;61885;53.560;9.940;2023-05-16T08:21:45;12.30;1.00
4673;DHT22;61885;53.560;9.940;2023-05-16T08:24:16;12.20;1.00
4673;DHT22;61885;53.560;9.940;2023-05-16T08:26:48;11.90;1.00
4673;DHT22;61885;53.560;9.940;2023-05-16T08:29:18;11.80;1.00
4673;DHT22;61885;53.560;9.940;2023-05-16T08:31:48;11.50;1.00
4673;DHT22;61885;53.560;9.940;2023-05-16T08:34:18;11.60;1.00
4673;DHT22;61885;53.560;9.940;2023-05-16T08:36:47;11.60;1.00
4673;DHT22;61885;53.560;9.940;2023-05-16T08:39:20;11.70;1.00
4673;DHT22;61885;53.560;9.940;2023-05-16T08:41:54;12.00;1.00
4673;DHT22;61885;53.560;9.940;2023-05-16T08:44:24;12.10;1.00
4673;DHT22;61885;53.560;9.940;2023-05-16T08:47:09;11.80;1.00
4673;DHT22;61885;53.560;9.940;2023-05-16T08:49:40;11.60;1.00
4673;DHT22;61885;53.560;9.940;2023-05-16T08:52:15;11.50;1.00
4673;DHT22;61885;53.560;9.940;2023-05-16T08:55:07;11.60;1.00
4673;DHT22;61885;53.560;9.940;2023-05-16T08:57:42;11.80;1.00
4673;DHT22;61885;53.560;9.940;2023-05-16T09:00:16;12.00;1.00
4673;DHT22;61885;53.560;9.940;2023-05-16T09:02:56;12.20;1.00
4673;DHT22;61885;53.560;9.940;2023-05-16T09:05:28;12.30;1.00
4673;DHT22;61885;53.560;9.940;2023-05-16T09:08:01;12.30;1.00
4673;DHT22;61885;53.560;9.940;2023-05-16T09:10:33;12.60;1.00
4673;DHT22;61885;53.560;9.940;2023-05-16T09:13:17;12.70;1.00
4673;DHT22;61885;53.560;9.940;2023-05-16T09:16:07;12.40;1.00
4673;DHT22;61885;53.560;9.940;2023-05-16T09:18:40;12.60;1.00
4673;DHT22;61885;53.560;9.940;2023-05-16T09:21:12;12.70;1.00
4673;DHT22;61885;53.560;9.940;2023-05-16T09:23:42;12.80;1.00
4673;DHT22;61885;53.560;9.940;2023-05-16T09:26:12;13.30;1.00
4673;DHT22;61885;53.560;9.940;2023-05-16T09:28:56;14.30;1.00
4673;DHT22;61885;53.560;9.940;2023-05-16T09:31:28;12.90;1.00
4673;DHT22;61885;53.560;9.940;2023-05-16T09:34:05;13.00;1.00
4673;DHT22;61885;53.560;9.940;2023-05-16T09:36:39;12.30;1.00
4673;DHT22;61885;53.560;9.940;2023-05-16T09:39:14;12.20;1.00
4673;DHT22;61885;53.560;9.940;2023-05-16T09:41:51;12.40;1.00
4673;DHT22;61885;53.560;9.940;2023-05-16T09:44:41;12.50;1.00
4673;DHT22;61885;53.560;9.940;2023-05-16T09:47:16;12.00;1.00
4673;DHT22;61885;53.560;9.940;2023-05-16T09:49:52;13.40;1.00
4673;DHT22;61885;53.560;9.940;2023-05-16T09:52:26;13.00;1.00
4673;DHT22;61885;53.560;9.940;2023-05-16T09:54:55;12.60;1.00
4673;DHT22;61885;53.560;9.940;2023-05-16T09:57:27;12.70;1.00
4673;DHT22;61885;53.560;9.940;2023-05-16T10:00:01;12.80;1.00
4673;DHT22;61885;53.560;9.940;2023-05-16T10:02:34;12.70;1.00
4673;DHT22;61885;53.560;9.940;2023-05-16T10:05:06;13.00;1.00
4673;DHT22;61885;53.560;9.940;2023-05-16T10:07:45;12.40;1.00
4673;DHT22;61885;53.560;9.940;2023-05-16T10:10:24;12.10;1.00
4673;DHT22;61885;53.560;9.940;2023-05-16T10:12:58;12.20;1.00
4673;DHT22;61885;53.560;9.940;2023-05-16T10:15:32;12.00;1.00
4673;DHT22;61885;53.560;9.940;2023-05-16T10:18:05;12.00;1.00
4673;DHT22;61885;53.560;9.940;2023-05-16T10:20:44;12.00;1.00
4673;DHT22;61885;53.560;9.940;2023-05-16T10:23:20;13.10;1.00
4673;DHT22;61885;53.560;9.940;2023-05-16T10:25:57;12.20;1.00
4673;DHT22;61885;53.560;9.940;2023-05-16T10:28:48;13.00;1.00
4673;DHT22;61885;53.560;9.940;2023-05-16T10:31:42;12.60;1.00
4673;DHT22;61885;53.560;9.940;2023-05-16T10:34:14;13.00;1.00
4673;DHT22;61885;53.560;9.940;2023-05-16T10:36:49;13.10;1.00
4673;DHT22;61885;53.560;9.940;2023-05-16T10:39:22;13.30;1.00
4673;DHT22;61885;53.560;9.940;2023-05-16T10:41:54;13.10;1.00
4673;DHT22;61885;53.560;9.940;2023-05-16T10:44:38;13.50;1.00
4673;DHT22;61885;53.560;9.940;2023-05-16T10:47:14;13.40;1.00
4673;DHT22;61885;53.560;9.940;2023-05-16T10:49:47;13.00;1.00
4673;DHT22;61885;53.560;9.940;2023-05-16T10:52:17;13.00;1.00
4673;DHT22;61885;53.560;9.940;2023-05-16T10:54:50;12.70;1.00
4673;DHT22;61885;53.560;9.940;2023-05-16T10:57:22;12.40;1.00
4673;DHT22;61885;53.560;9.940;2023-05-16T10:59:53;12.00;1.00
4673;DHT22;61885;53.560;9.940;2023-05-16T11:02:30;11.90;1.00
4673;DHT22;61885;53.560;9.940;2023-05-16T11:05:02;12.00;1.00
4673;DHT22;61885;53.560;9.940;2023-05-16T11:07:34;12.00;1.00
4673;DHT22;61885;53.560;9.940;2023-05-16T11:10:06;11.90;1.00
4673;DHT22;61885;53.560;9.940;2023-05-16T11:12:42;11.90;1.00
4673;DHT22;61885;53.560;9.940;2023-05-16T11:15:20;12.20;1.00
4673;DHT22;61885;53.560;9.940;2023-05-16T11:18:06;12.30;1.00
4673;DHT22;61885;53.560;9.940;2023-05-16T11:20:38;12.70;1.00
4673;DHT22;61885;53.560;9.940;2023-05-16T11:23:34;12.60;1.00
4673;DHT22;61885;53.560;9.940;2023-05-16T11:26:20;12.80;1.00
4673;DHT22;61885;53.560;9.940;2023-05-16T11:36:13;13.20;1.00
4673;DHT22;61885;53.560;9.940;2023-05-16T11:38:47;14.20;1.00
4673;DHT22;61885;53.560;9.940;2023-05-16T11:41:31;14.40;1.00
4673;DHT22;61885;53.560;9.940;2023-05-16T11:44:14;13.40;1.00
4673;DHT22;61885;53.560;9.940;2023-05-16T11:46:47;14.30;1.00
4673;DHT22;61885;53.560;9.940;2023-05-16T11:49:21;13.90;1.00
4673;DHT22;61885;53.560;9.940;2023-05-16T11:51:56;13.20;1.00
4673;DHT22;61885;53.560;9.940;2023-05-16T11:54:26;13.30;1.00
4673;DHT22;61885;53.560;9.940;2023-05-16T11:56:56;13.10;1.00
4673;DHT22;61885;53.560;9.940;2023-05-16T11:59:27;13.50;1.00
4673;DHT22;61885;53.560;9.940;2023-05-16T12:05:19;13.10;1.00
4673;DHT22;61885;53.560;9.940;2023-05-16T12:07:56;14.10;1.00
4673;DHT22;61885;53.560;9.940;2023-05-16T12:10:25;13.40;1.00
4673;DHT22;61885;53.560;9.940;2023-05-16T12:12:55;12.90;1.00
4673;DHT22;61885;53.560;9.940;2023-05-16T12:15:25;12.50;1.00
4673;DHT22;61885;53.560;9.940;2023-05-16T12:17:57;12.80;1.00
4673;DHT22;61885;53.560;9.940;2023-05-16T12:20:28;13.10;1.00
4673;DHT22;61885;53.560;9.940;2023-05-16T12:23:00;13.20;1.00
4673;DHT22;61885;53.560;9.940;2023-05-16T12:25:31;13.70;1.00
4673;DHT22;61885;53.560;9.940;2023-05-16T12:28:03;13.90;1.00
4673;DHT22;61885;53.560;9.940;2023-05-16T12:30:33;14.20;1.00
4673;DHT22;61885;53.560;9.940;2023-05-16T12:33:08;13.70;1.00
4673;DHT22;61885;53.560;9.940;2023-05-16T12:35:41;13.70;1.00
4673;DHT22;61885;53.560;9.940;2023-05-16T12:38:15;14.10;1.00
4673;DHT22;61885;53.560;9.940;2023-05-16T12:40:45;14.00;1.00
4673;DHT22;61885;53.560;9.940;2023-05-16T12:43:16;14.30;1.00
4673;DHT22;61885;53.560;9.940;2023-05-16T12:45:51;14.30;1.00
4673;DHT22;61885;53.560;9.940;2023-05-16T12:48:21;14.10;1.00
4673;DHT22;61885;53.560;9.940;2023-05-16T12:50:54;14.30;1.00
4673;DHT22;61885;53.560;9.940;2023-05-16T12:53:26;13.90;1.00
4673;DHT22;61885;53.560;9.940;2023-05-16T12:55:58;13.60;1.00
4673;DHT22;61885;53.560;9.940;2023-05-16T12:58:29;13.00;1.00
4673;DHT22;61885;53.560;9.940;2023-05-16T13:00:59;12.80;1.00
4673;DHT22;61885;53.560;9.940;2023-05-16T13:03:31;12.50;1.00
4673;DHT22;61885;53.560;9.940;2023-05-16T13:06:02;12.70;1.00
4673;DHT22;61885;53.560;9.940;2023-05-16T13:08:35;12.70;1.00
4673;DHT22;61885;53.560;9.940;2023-05-16T13:11:05;12.90;1.00
4673;DHT22;61885;53.560;9.940;2023-05-16T13:13:35;13.30;1.00
4673;DHT22;61885;53.560;9.940;2023-05-16T13:16:05;13.60;1.00
4673;DHT22;61885;53.560;9.940;2023-05-16T13:18:36;13.90;1.00
4673;DHT22;61885;53.560;9.940;2023-05-16T13:21:08;14.10;1.00
4673;DHT22;61885;53.560;9.940;2023-05-16T13:23:44;13.70;1.00
4673;DHT22;61885;53.560;9.940;2023-05-16T13:26:14;13.00;1.00
4673;DHT22;61885;53.560;9.940;2023-05-16T13:28:43;12.20;1.00
4673;DHT22;61885;53.560;9.940;2023-05-16T13:31:17;11.90;1.00
4673;DHT22;61885;53.560;9.940;2023-05-16T13:33:47;11.60;1.00
4673;DHT22;61885;53.560;9.940;2023-05-16T13:36:18;11.50;1.00
4673;DHT22;61885;53.560;9.940;2023-05-16T13:38:50;11.60;1.00
4673;DHT22;61885;53.560;9.940;2023-05-16T13:41:19;12.30;1.00
4673;DHT22;61885;53.560;9.940;2023-05-16T13:43:49;12.80;1.00
4673;DHT22;61885;53.560;9.940;2023-05-16T13:46:19;13.30;1.00
4673;DHT22;61885;53.560;9.940;2023-05-16T13:49:05;13.50;1.00
4673;DHT22;61885;53.560;9.940;2023-05-16T13:51:36;13.80;1.00
4673;DHT22;61885;53.560;9.940;2023-05-16T13:54:26;13.60;1.00
4673;DHT22;61885;53.560;9.940;2023-05-16T13:56:57;12.70;1.00
4673;DHT22;61885;53.560;9.940;2023-05-16T13:59:31;11.80;1.00
4673;DHT22;61885;53.560;9.940;2023-05-16T14:02:01;11.20;1.00
4673;DHT22;61885;53.560;9.940;2023-05-16T14:04:35;11.00;1.00
4673;DHT22;61885;53.560;9.940;2023-05-16T14:07:08;11.30;1.00
4673;DHT22;61885;53.560;9.940;2023-05-16T14:09:41;11.40;1.00
4673;DHT22;61885;53.560;9.940;2023-05-16T14:12:16;11.50;1.00
4673;DHT22;61885;53.560;9.940;2023-05-16T14:14:49;11.70;1.00
4673;DHT22;61885;53.560;9.940;2023-05-16T14:17:21;12.20;1.00
4673;DHT22;61885;53.560;9.940;2023-05-16T14:19:52;11.80;1.00
4673;DHT22;61885;53.560;9.940;2023-05-16T14:22:24;11.70;1.00
4673;DHT22;61885;53.560;9.940;2023-05-16T14:24:59;12.60;1.00
4673;DHT22;61885;53.560;9.940;2023-05-16T14:27:35;13.60;1.00
4673;DHT22;61885;53.560;9.940;2023-05-16T14:30:09;13.50;1.00
4673;DHT22;61885;53.560;9.940;2023-05-16T14:32:42;14.00;1.00
4673;DHT22;61885;53.560;9.940;2023-05-16T14:37:52;14.90;1.00
4673;DHT22;61885;53.560;9.940;2023-05-16T14:40:26;14.90;1.00
4673;DHT22;61885;53.560;9.940;2023-05-16T14:43:00;14.50;1.00
4673;DHT22;61885;53.560;9.940;2023-05-16T14:45:36;13.90;1.00
4673;DHT22;61885;53.560;9.940;2023-05-16T14:48:08;13.10;1.00
4673;DHT22;61885;53.560;9.940;2023-05-16T14:50:39;12.70;1.00
4673;DHT22;61885;53.560;9.940;2023-05-16T14:53:09;12.60;1.00
4673;DHT22;61885;53.560;9.940;2023-05-16T14:55:44;13.20;1.00
4673;DHT22;61885;53.560;9.940;2023-05-16T14:58:17;14.30;1.00
4673;DHT22;61885;53.560;9.940;2023-05-16T15:00:51;16.20;1.00
4673;DHT22;61885;53.560;9.940;2023-05-16T15:03:23;16.60;1.00
4673;DHT22;61885;53.560;9.940;2023-05-16T15:05:52;16.50;1.00
4673;DHT22;61885;53.560;9.940;2023-05-16T15:11:15;15.40;1.00
4673;DHT22;61885;53.560;9.940;2023-05-16T15:13:46;15.50;1.00
4673;DHT22;61885;53.560;9.940;2023-05-16T15:16:23;14.90;1.00
4673;DHT22;61885;53.560;9.940;2023-05-16T15:19:01;15.50;1.00
4673;DHT22;61885;53.560;9.940;2023-05-16T15:21:36;16.60;1.00
4673;DHT22;61885;53.560;9.940;2023-05-16T15:24:08;17.10;1.00
4673;DHT22;61885;53.560;9.940;2023-05-16T15:26:41;16.10;1.00
4673;DHT22;61885;53.560;9.940;2023-05-16T15:29:13;16.00;1.00
4673;DHT22;61885;53.560;9.940;2023-05-16T15:31:47;16.60;1.00
4673;DHT22;61885;53.560;9.940;2023-05-16T15:34:33;16.20;1.00
4673;DHT22;61885;53.560;9.940;2023-05-16T15:37:04;14.20;1.00
4673;DHT22;61885;53.560;9.940;2023-05-16T15:39:37;13.60;1.00
4673;DHT22;61885;53.560;9.940;2023-05-16T15:42:18;13.30;1.00
4673;DHT22;61885;53.560;9.940;2023-05-16T15:44:50;13.10;1.00
4673;DHT22;61885;53.560;9.940;2023-05-16T15:47:20;12.90;1.00
4673;DHT22;61885;53.560;9.940;2023-05-16T15:49:53;12.50;1.00
4673;DHT22;61885;53.560;9.940;2023-05-16T15:52:24;13.20;1.00
4673;DHT22;61885;53.560;9.940;2023-05-16T15:54:59;13.10;1.00
4673;DHT22;61885;53.560;9.940;2023-05-16T15:57:42;12.40;1.00
4673;DHT22;61885;53.560;9.940;2023-05-16T16:00:17;12.60;1.00
4673;DHT22;61885;53.560;9.940;2023-05-16T16:02:59;12.50;1.00
4673;DHT22;61885;53.560;9.940;2023-05-16T16:05:32;12.80;1.00
4673;DHT22;61885;53.560;9.940;2023-05-16T16:08:03;14.10;1.00
4673;DHT22;61885;53.560;9.940;2023-05-16T16:10:35;14.30;1.00
4673;DHT22;61885;53.560;9.940;2023-05-16T16:13:08;14.60;1.00
4673;DHT22;61885;53.560;9.940;2023-05-16T16:15:42;14.30;1.00
4673;DHT22;61885;53.560;9.940;2023-05-16T16:18:18;14.20;1.00
4673;DHT22;61885;53.560;9.940;2023-05-16T16:20:50;15.60;1.00
4673;DHT22;61885;53.560;9.940;2023-05-16T16:23:22;14.50;1.00
4673;DHT22;61885;53.560;9.940;2023-05-16T16:25:54;13.60;1.00
4673;DHT22;61885;53.560;9.940;2023-05-16T16:28:29;13.40;1.00
4673;DHT22;61885;53.560;9.940;2023-05-16T16:30:58;14.20;1.00
4673;DHT22;61885;53.560;9.940;2023-05-16T16:33:30;14.50;1.00
4673;DHT22;61885;53.560;9.940;2023-05-16T16:36:00;14.90;1.00
4673;DHT22;61885;53.560;9.940;2023-05-16T16:38:33;15.90;1.00
4673;DHT22;61885;53.560;9.940;2023-05-16T16:41:07;16.20;1.00
4673;DHT22;61885;53.560;9.940;2023-05-16T16:43:52;15.80;1.00
4673;DHT22;61885;53.560;9.940;2023-05-16T16:49:02;14.10;1.00
4673;DHT22;61885;53.560;9.940;2023-05-16T16:51:34;13.30;1.00
4673;DHT22;61885;53.560;9.940;2023-05-16T16:54:06;12.50;1.00
4673;DHT22;61885;53.560;9.940;2023-05-16T16:56:36;12.20;1.00
4673;DHT22;61885;53.560;9.940;2023-05-16T16:59:11;11.80;1.00
4673;DHT22;61885;53.560;9.940;2023-05-16T17:01:41;11.80;1.00
4673;DHT22;61885;53.560;9.940;2023-05-16T17:04:13;11.70;1.00
4673;DHT22;61885;53.560;9.940;2023-05-16T17:06:48;11.40;1.00
4673;DHT22;61885;53.560;9.940;2023-05-16T17:09:18;11.30;1.00
4673;DHT22;61885;53.560;9.940;2023-05-16T17:11:52;11.10;1.00
4673;DHT22;61885;53.560;9.940;2023-05-16T17:14:24;10.90;1.00
4673;DHT22;61885;53.560;9.940;2023-05-16T17:20:20;11.80;1.00
4673;DHT22;61885;53.560;9.940;2023-05-16T17:22:50;11.00;1.00
4673;DHT22;61885;53.560;9.940;2023-05-16T17:25:21;10.70;1.00